createdAt,value
2022-10-11T00:00:02.381Z,35.21
2022-10-11T00:00:33.799Z,35.03
2022-10-11T00:01:05.297Z,34.92
2022-10-11T00:01:36.827Z,35.06
2022-10-11T00:02:08.349Z,35.09
2022-10-11T00:02:39.892Z,34.86
2022-10-11T00:03:11.286Z,35.13
2022-10-11T00:03:42.751Z,35.09
2022-10-11T00:04:14.231Z,34.97
2022-10-11T00:04:45.709Z,35.14
2022-10-11T00:05:17.195Z,35.00
2022-10-11T00:05:48.618Z,35.04
2022-10-11T00:06:20.021Z,35.10
2022-10-11T00:06:51.472Z,35.03
2022-10-11T00:07:22.960Z,35.04
2022-10-11T00:07:54.569Z,35.02
2022-10-11T00:08:29.052Z,34.76
2022-10-11T00:09:00.582Z,34.94
2022-10-11T00:09:31.987Z,34.90
2022-10-11T00:10:06.178Z,34.78
2022-10-11T00:10:39.495Z,35.13
2022-10-11T00:11:10.991Z,35.08
2022-10-11T00:11:42.398Z,34.96
2022-10-11T00:12:13.834Z,34.93
2022-10-11T00:12:45.233Z,35.01
2022-10-11T00:13:16.752Z,34.86
2022-10-11T00:13:48.229Z,34.78
2022-10-11T00:14:19.695Z,34.91
2022-10-11T00:14:51.087Z,35.03
2022-10-11T00:15:22.571Z,35.08
2022-10-11T00:15:53.955Z,34.99
2022-10-11T00:16:25.391Z,34.96
2022-10-11T00:16:56.822Z,35.04
2022-10-11T00:17:28.341Z,35.00
2022-10-11T00:18:04.470Z,34.81
2022-10-11T00:18:36.901Z,34.92
2022-10-11T00:19:08.349Z,34.97
2022-10-11T00:19:39.749Z,35.00
2022-10-11T00:20:13.448Z,35.02
2022-10-11T00:20:45.997Z,34.82
2022-10-11T00:21:17.439Z,34.95
2022-10-11T00:21:50.700Z,34.97
2022-10-11T00:22:24.177Z,35.02
2022-10-11T00:22:55.585Z,34.89
2022-10-11T00:23:27.009Z,35.03
2022-10-11T00:23:58.487Z,34.92
2022-10-11T00:24:29.876Z,34.81
2022-10-11T00:25:01.306Z,34.91
2022-10-11T00:25:32.782Z,34.95
2022-10-11T00:26:04.637Z,34.75
2022-10-11T00:26:36.337Z,34.95
2022-10-11T00:27:08.300Z,34.65
2022-10-11T00:27:39.698Z,34.91
2022-10-11T00:28:11.136Z,34.89
2022-10-11T00:28:42.653Z,34.70
2022-10-11T00:29:14.090Z,34.75
2022-10-11T00:29:45.477Z,34.92
2022-10-11T00:30:16.949Z,34.92
2022-10-11T00:30:48.342Z,34.75
2022-10-11T00:31:19.726Z,34.63
2022-10-11T00:31:51.219Z,34.79
2022-10-11T00:32:22.625Z,34.70
2022-10-11T00:32:54.035Z,34.78
2022-10-11T00:33:25.431Z,34.74
2022-10-11T00:33:56.940Z,34.70
2022-10-11T00:34:28.334Z,34.57
2022-10-11T00:34:59.764Z,34.64
2022-10-11T00:35:31.221Z,34.54
2022-10-11T00:36:05.410Z,34.66
2022-10-11T00:36:42.262Z,34.73
2022-10-11T00:37:16.855Z,34.84
2022-10-11T00:37:48.278Z,34.95
2022-10-11T00:38:19.713Z,34.93
2022-10-11T00:38:51.113Z,34.88
2022-10-11T00:39:22.534Z,34.98
2022-10-11T00:39:53.893Z,34.84
2022-10-11T00:40:25.330Z,34.73
2022-10-11T00:40:56.792Z,34.91
2022-10-11T00:41:28.195Z,34.82
2022-10-11T00:41:59.678Z,34.86
2022-10-11T00:42:31.069Z,34.68
2022-10-11T00:43:02.581Z,34.77
2022-10-11T00:43:35.813Z,35.00
2022-10-11T00:44:07.359Z,34.83
2022-10-11T00:44:41.206Z,34.64
2022-10-11T00:45:12.594Z,34.69
2022-10-11T00:45:44.008Z,34.86
2022-10-11T00:46:15.533Z,34.64
2022-10-11T00:46:46.954Z,34.84
2022-10-11T00:47:18.396Z,34.61
2022-10-11T00:47:52.762Z,34.86
2022-10-11T00:48:24.228Z,34.69
2022-10-11T00:48:55.667Z,34.89
2022-10-11T00:49:27.060Z,34.60
2022-10-11T00:49:58.440Z,34.82
2022-10-11T00:50:31.351Z,34.74
2022-10-11T00:51:03.093Z,34.62
2022-10-11T00:51:37.805Z,34.81
2022-10-11T00:52:09.211Z,34.86
2022-10-11T00:52:40.696Z,34.68
2022-10-11T00:53:12.096Z,34.76
2022-10-11T00:53:43.510Z,34.65
2022-10-11T00:54:17.633Z,34.71
2022-10-11T00:54:51.408Z,34.74
2022-10-11T00:55:22.865Z,34.79
2022-10-11T00:55:55.484Z,34.89
2022-10-11T00:56:26.955Z,34.80
2022-10-11T00:56:58.352Z,34.70
2022-10-11T00:57:34.478Z,34.66
2022-10-11T00:58:05.952Z,34.72
2022-10-11T00:58:37.370Z,34.72
2022-10-11T00:59:08.816Z,34.84
2022-10-11T00:59:40.303Z,34.89
2022-10-11T01:00:11.697Z,34.70
2022-10-11T01:00:43.122Z,34.67
2022-10-11T01:01:14.582Z,34.78
2022-10-11T01:01:46.077Z,34.72
2022-10-11T01:02:19.321Z,34.66
2022-10-11T01:02:50.728Z,34.74
2022-10-11T01:03:22.478Z,34.79
2022-10-11T01:03:53.931Z,34.91
2022-10-11T01:04:25.349Z,34.77
2022-10-11T01:05:11.632Z,34.76
2022-10-11T01:05:48.154Z,34.67
2022-10-11T01:06:19.636Z,34.69
2022-10-11T01:06:51.034Z,34.72
2022-10-11T01:07:22.537Z,34.80
2022-10-11T01:07:53.924Z,34.68
2022-10-11T01:08:25.341Z,34.77
2022-10-11T01:08:56.788Z,34.57
2022-10-11T01:09:29.960Z,34.80
2022-10-11T01:10:01.336Z,34.76
2022-10-11T01:10:32.724Z,34.68
2022-10-11T01:11:04.170Z,34.58
2022-10-11T01:11:35.668Z,34.80
2022-10-11T01:12:08.939Z,34.54
2022-10-11T01:12:40.333Z,34.59
2022-10-11T01:13:11.744Z,34.70
2022-10-11T01:13:43.249Z,34.63
2022-10-11T01:14:14.675Z,34.65
2022-10-11T01:14:46.097Z,34.58
2022-10-11T01:15:17.578Z,34.62
2022-10-11T01:15:49.099Z,34.75
2022-10-11T01:16:20.522Z,34.58
2022-10-11T01:16:51.925Z,34.56
2022-10-11T01:17:23.365Z,34.64
2022-10-11T01:17:54.754Z,34.51
2022-10-11T01:18:26.185Z,34.68
2022-10-11T01:18:57.607Z,34.59
2022-10-11T01:19:29.016Z,34.47
2022-10-11T01:20:00.461Z,34.61
2022-10-11T01:20:31.859Z,34.54
2022-10-11T01:21:03.251Z,34.52
2022-10-11T01:21:34.783Z,34.44
2022-10-11T01:22:06.193Z,34.74
2022-10-11T01:22:37.686Z,34.43
2022-10-11T01:23:09.137Z,34.47
2022-10-11T01:23:40.565Z,34.55
2022-10-11T01:24:14.797Z,34.69
2022-10-11T01:24:46.304Z,34.61
2022-10-11T01:25:17.721Z,34.67
2022-10-11T01:25:49.206Z,34.66
2022-10-11T01:26:20.693Z,34.43
2022-10-11T01:26:52.133Z,34.53
2022-10-11T01:27:23.647Z,34.61
2022-10-11T01:27:55.201Z,34.44
2022-10-11T01:28:26.805Z,34.63
2022-10-11T01:28:58.342Z,34.53
2022-10-11T01:29:29.946Z,34.40
2022-10-11T01:30:01.364Z,34.59
2022-10-11T01:30:32.824Z,34.57
2022-10-11T01:31:04.216Z,34.39
2022-10-11T01:31:35.705Z,34.41
2022-10-11T01:32:07.068Z,34.70
2022-10-11T01:32:38.439Z,34.63
2022-10-11T01:33:12.122Z,34.76
2022-10-11T01:33:43.556Z,34.48
2022-10-11T01:34:15.094Z,34.23
2022-10-11T01:34:46.499Z,34.40
2022-10-11T01:35:18.075Z,34.32
2022-10-11T01:35:50.974Z,34.36
2022-10-11T01:36:22.403Z,34.42
2022-10-11T01:36:53.862Z,34.40
2022-10-11T01:37:25.294Z,34.48
2022-10-11T01:37:56.707Z,34.42
2022-10-11T01:38:29.967Z,34.52
2022-10-11T01:39:01.799Z,34.52
2022-10-11T01:39:33.262Z,34.38
2022-10-11T01:40:04.680Z,34.40
2022-10-11T01:40:36.117Z,34.56
2022-10-11T01:41:08.602Z,34.35
2022-10-11T01:41:40.012Z,34.49
2022-10-11T01:42:13.726Z,34.53
2022-10-11T01:42:45.180Z,34.46
2022-10-11T01:43:16.605Z,34.47
2022-10-11T01:43:50.760Z,34.30
2022-10-11T01:44:22.209Z,34.48
2022-10-11T01:44:53.660Z,34.42
2022-10-11T01:45:25.110Z,34.36
2022-10-11T01:45:56.583Z,34.22
2022-10-11T01:46:28.010Z,34.34
2022-10-11T01:46:59.456Z,34.57
2022-10-11T01:47:30.870Z,34.21
2022-10-11T01:48:02.359Z,34.32
2022-10-11T01:48:33.832Z,34.56
2022-10-11T01:49:05.239Z,34.51
2022-10-11T01:49:36.768Z,34.38
2022-10-11T01:50:08.201Z,34.47
2022-10-11T01:50:39.644Z,34.47
2022-10-11T01:51:11.066Z,34.27
2022-10-11T01:51:46.968Z,34.43
2022-10-11T01:52:18.866Z,34.51
2022-10-11T01:52:50.324Z,34.48
2022-10-11T01:53:21.746Z,34.29
2022-10-11T01:53:56.107Z,34.40
2022-10-11T01:54:35.233Z,34.31
2022-10-11T01:55:18.955Z,34.22
2022-10-11T01:55:50.364Z,34.23
2022-10-11T01:56:21.762Z,34.27
2022-10-11T01:56:53.264Z,34.15
2022-10-11T01:57:24.668Z,34.26
2022-10-11T01:57:56.127Z,34.15
2022-10-11T01:58:27.512Z,34.16
2022-10-11T01:58:58.935Z,34.34
2022-10-11T01:59:30.383Z,34.13
2022-10-11T02:00:01.851Z,34.29
2022-10-11T02:00:33.304Z,34.23
2022-10-11T02:01:04.735Z,34.36
2022-10-11T02:01:36.300Z,34.23
2022-10-11T02:02:07.727Z,34.07
2022-10-11T02:02:39.204Z,33.98
2022-10-11T02:03:10.665Z,34.23
2022-10-11T02:03:42.089Z,34.17
2022-10-11T02:04:13.576Z,34.10
2022-10-11T02:04:44.986Z,34.28
2022-10-11T02:05:16.540Z,34.18
2022-10-11T02:05:47.917Z,34.29
2022-10-11T02:06:19.359Z,34.20
2022-10-11T02:06:50.825Z,34.06
2022-10-11T02:07:22.203Z,34.20
2022-10-11T02:07:53.637Z,34.18
2022-10-11T02:08:25.166Z,34.34
2022-10-11T02:08:58.750Z,34.02
2022-10-11T02:09:30.136Z,34.17
2022-10-11T02:10:01.564Z,34.13
2022-10-11T02:10:33.001Z,34.26
2022-10-11T02:11:04.398Z,34.06
2022-10-11T02:11:35.833Z,34.09
2022-10-11T02:12:07.242Z,33.96
2022-10-11T02:12:38.622Z,34.03
2022-10-11T02:13:12.800Z,34.00
2022-10-11T02:13:47.257Z,34.26
2022-10-11T02:14:18.673Z,33.98
2022-10-11T02:14:50.190Z,34.00
2022-10-11T02:15:21.644Z,34.05
2022-10-11T02:15:53.162Z,34.11
2022-10-11T02:16:24.557Z,34.09
2022-10-11T02:16:56.042Z,33.94
2022-10-11T02:17:29.936Z,34.03
2022-10-11T02:18:01.490Z,33.98
2022-10-11T02:18:32.896Z,33.99
2022-10-11T02:19:07.366Z,34.02
2022-10-11T02:19:38.825Z,34.18
2022-10-11T02:20:13.293Z,33.85
2022-10-11T02:20:44.689Z,34.17
2022-10-11T02:21:16.179Z,34.04
2022-10-11T02:21:47.635Z,34.04
2022-10-11T02:22:19.023Z,34.14
2022-10-11T02:22:50.484Z,34.18
2022-10-11T02:23:23.411Z,34.05
2022-10-11T02:23:54.832Z,34.00
2022-10-11T02:24:26.352Z,33.95
2022-10-11T02:24:57.778Z,34.16
2022-10-11T02:25:29.172Z,34.10
2022-10-11T02:26:03.268Z,33.92
2022-10-11T02:26:34.843Z,34.12
2022-10-11T02:27:09.078Z,34.06
2022-10-11T02:27:40.593Z,34.04
2022-10-11T02:28:12.041Z,33.95
2022-10-11T02:28:43.573Z,33.83
2022-10-11T02:29:15.055Z,33.91
2022-10-11T02:29:47.339Z,33.84
2022-10-11T02:30:18.786Z,33.85
2022-10-11T02:30:52.989Z,34.11
2022-10-11T02:31:26.514Z,33.78
2022-10-11T02:31:57.966Z,34.00
2022-10-11T02:32:29.546Z,33.85
2022-10-11T02:33:03.720Z,33.97
2022-10-11T02:33:38.014Z,34.04
2022-10-11T02:34:09.392Z,33.94
2022-10-11T02:34:40.846Z,33.95
2022-10-11T02:35:12.369Z,33.85
2022-10-11T02:35:43.807Z,33.73
2022-10-11T02:36:15.338Z,33.86
2022-10-11T02:36:46.757Z,33.71
2022-10-11T02:37:18.237Z,34.03
2022-10-11T02:37:49.655Z,33.83
2022-10-11T02:38:21.158Z,34.00
2022-10-11T02:38:52.609Z,34.03
2022-10-11T02:39:24.029Z,33.74
2022-10-11T02:39:57.616Z,33.78
2022-10-11T02:40:32.162Z,33.87
2022-10-11T02:41:03.618Z,33.68
2022-10-11T02:41:35.062Z,33.67
2022-10-11T02:42:09.688Z,33.74
2022-10-11T02:42:41.088Z,33.77
2022-10-11T02:43:12.574Z,33.77
2022-10-11T02:43:44.006Z,33.96
2022-10-11T02:44:15.465Z,33.96
2022-10-11T02:44:46.889Z,33.95
2022-10-11T02:45:18.532Z,33.73
2022-10-11T02:45:49.985Z,33.68
2022-10-11T02:46:21.448Z,33.78
2022-10-11T02:46:52.937Z,33.65
2022-10-11T02:47:24.391Z,33.74
2022-10-11T02:47:55.766Z,33.96
2022-10-11T02:48:27.184Z,33.70
2022-10-11T02:48:58.697Z,33.78
2022-10-11T02:49:30.111Z,33.65
2022-10-11T02:50:04.451Z,33.62
2022-10-11T02:50:35.879Z,33.80
2022-10-11T02:51:07.272Z,33.59
2022-10-11T02:51:38.702Z,33.69
2022-10-11T02:52:12.274Z,33.78
2022-10-11T02:52:43.710Z,33.76
2022-10-11T02:53:15.138Z,33.49
2022-10-11T02:53:46.662Z,33.69
2022-10-11T02:54:18.074Z,33.82
2022-10-11T02:54:49.453Z,33.73
2022-10-11T02:55:22.637Z,33.81
2022-10-11T02:55:56.962Z,33.64
2022-10-11T02:56:28.372Z,33.67
2022-10-11T02:56:59.794Z,33.73
2022-10-11T02:57:35.726Z,33.61
2022-10-11T02:58:07.204Z,33.59
2022-10-11T02:58:38.658Z,33.65
2022-10-11T02:59:10.273Z,33.73
2022-10-11T02:59:44.520Z,33.73
2022-10-11T03:00:15.979Z,33.69
2022-10-11T03:00:47.346Z,33.70
2022-10-11T03:01:21.805Z,33.56
2022-10-11T03:01:53.431Z,33.63
2022-10-11T03:02:24.978Z,33.62
2022-10-11T03:02:56.415Z,33.65
2022-10-11T03:03:27.847Z,33.77
2022-10-11T03:03:59.261Z,33.76
2022-10-11T03:04:30.743Z,33.67
2022-10-11T03:05:02.179Z,33.55
2022-10-11T03:05:36.604Z,33.81
2022-10-11T03:06:08.319Z,33.88
2022-10-11T03:06:40.021Z,33.80
2022-10-11T03:07:11.441Z,33.60
2022-10-11T03:07:42.854Z,33.78
2022-10-11T03:08:14.267Z,33.52
2022-10-11T03:08:45.696Z,33.60
2022-10-11T03:09:19.732Z,33.72
2022-10-11T03:09:51.179Z,33.51
2022-10-11T03:10:22.566Z,33.76
2022-10-11T03:10:54.022Z,33.67
2022-10-11T03:11:28.369Z,33.69
2022-10-11T03:11:59.816Z,33.86
2022-10-11T03:12:31.273Z,33.71
2022-10-11T03:13:02.737Z,33.74
2022-10-11T03:13:37.147Z,33.64
2022-10-11T03:14:08.661Z,33.71
2022-10-11T03:14:40.096Z,33.95
2022-10-11T03:15:14.171Z,33.81
2022-10-11T03:15:45.585Z,33.81
2022-10-11T03:16:17.032Z,33.90
2022-10-11T03:16:48.735Z,33.74
2022-10-11T03:17:35.521Z,33.64
2022-10-11T03:18:07.927Z,33.87
2022-10-11T03:18:42.462Z,33.91
2022-10-11T03:19:19.009Z,33.70
2022-10-11T03:19:50.739Z,33.80
2022-10-11T03:20:22.222Z,33.81
2022-10-11T03:20:53.613Z,33.92
2022-10-11T03:21:25.083Z,33.80
2022-10-11T03:21:56.638Z,33.77
2022-10-11T03:22:28.069Z,33.73
2022-10-11T03:22:59.573Z,33.86
2022-10-11T03:23:30.987Z,33.75
2022-10-11T03:24:05.047Z,33.73
2022-10-11T03:24:36.527Z,33.95
2022-10-11T03:25:07.963Z,33.81
2022-10-11T03:25:39.399Z,33.79
2022-10-11T03:26:10.826Z,33.79
2022-10-11T03:26:42.222Z,33.56
2022-10-11T03:27:13.695Z,33.83
2022-10-11T03:27:45.089Z,33.70
2022-10-11T03:28:16.609Z,33.71
2022-10-11T03:28:50.882Z,33.66
2022-10-11T03:29:22.318Z,33.83
2022-10-11T03:29:53.772Z,33.59
2022-10-11T03:30:25.250Z,33.75
2022-10-11T03:30:56.642Z,33.80
2022-10-11T03:31:28.048Z,33.63
2022-10-11T03:32:01.225Z,33.76
2022-10-11T03:32:32.666Z,33.73
2022-10-11T03:33:04.099Z,33.72
2022-10-11T03:33:38.595Z,33.63
2022-10-11T03:34:09.979Z,33.73
2022-10-11T03:34:41.478Z,33.62
2022-10-11T03:35:12.897Z,33.61
2022-10-11T03:35:44.333Z,33.63
2022-10-11T03:36:15.789Z,33.57
2022-10-11T03:36:48.435Z,33.75
2022-10-11T03:37:19.829Z,33.66
2022-10-11T03:37:51.352Z,33.79
2022-10-11T03:38:22.829Z,33.54
2022-10-11T03:38:54.344Z,33.44
2022-10-11T03:39:25.749Z,33.52
2022-10-11T03:39:58.592Z,33.50
2022-10-11T03:40:29.998Z,33.58
2022-10-11T03:41:03.278Z,33.62
2022-10-11T03:41:34.763Z,33.64
2022-10-11T03:42:06.292Z,33.59
2022-10-11T03:42:37.689Z,33.62
2022-10-11T03:43:09.126Z,33.59
2022-10-11T03:43:40.530Z,33.65
2022-10-11T03:44:11.961Z,33.59
2022-10-11T03:44:43.398Z,33.73
2022-10-11T03:45:14.779Z,33.53
2022-10-11T03:45:46.185Z,33.38
2022-10-11T03:46:20.337Z,33.63
2022-10-11T03:46:51.874Z,33.69
2022-10-11T03:47:23.300Z,33.55
2022-10-11T03:47:54.754Z,33.50
2022-10-11T03:48:26.150Z,33.63
2022-10-11T03:48:57.520Z,33.51
2022-10-11T03:49:28.942Z,33.57
2022-10-11T03:50:03.318Z,33.42
2022-10-11T03:50:34.742Z,33.50
2022-10-11T03:51:06.151Z,33.63
2022-10-11T03:51:37.512Z,33.80
2022-10-11T03:52:08.996Z,33.75
2022-10-11T03:52:40.370Z,33.75
2022-10-11T03:53:11.754Z,33.55
2022-10-11T03:53:44.927Z,33.74
2022-10-11T03:54:16.482Z,33.50
2022-10-11T03:54:47.975Z,33.49
2022-10-11T03:55:22.305Z,33.66
2022-10-11T03:55:53.781Z,33.46
2022-10-11T03:56:25.206Z,33.48
2022-10-11T03:56:56.676Z,33.59
2022-10-11T03:57:28.133Z,33.49
2022-10-11T03:57:59.616Z,33.60
2022-10-11T03:58:31.078Z,33.45
2022-10-11T03:59:02.557Z,33.63
2022-10-11T03:59:33.938Z,33.44
2022-10-11T04:00:05.353Z,33.47
2022-10-11T04:00:36.811Z,33.34
2022-10-11T04:01:08.271Z,33.47
2022-10-11T04:01:39.777Z,33.50
2022-10-11T04:02:11.312Z,33.51
2022-10-11T04:02:42.794Z,33.43
2022-10-11T04:03:14.182Z,33.39
2022-10-11T04:03:45.649Z,33.73
2022-10-11T04:04:17.131Z,33.54
2022-10-11T04:04:51.497Z,33.34
2022-10-11T04:05:22.953Z,33.30
2022-10-11T04:05:57.105Z,33.40
2022-10-11T04:06:28.706Z,33.54
2022-10-11T04:07:00.085Z,33.37
2022-10-11T04:07:31.657Z,33.70
2022-10-11T04:08:03.059Z,33.49
2022-10-11T04:08:34.488Z,33.38
2022-10-11T04:09:05.936Z,33.40
2022-10-11T04:09:37.374Z,33.55
2022-10-11T04:10:17.638Z,33.33
2022-10-11T04:10:49.062Z,33.46
2022-10-11T04:11:20.436Z,33.37
2022-10-11T04:11:51.846Z,33.44
2022-10-11T04:12:23.278Z,33.40
2022-10-11T04:12:54.732Z,33.48
2022-10-11T04:13:28.628Z,33.33
2022-10-11T04:14:00.021Z,33.41
2022-10-11T04:14:31.416Z,33.51
2022-10-11T04:15:02.887Z,33.34
2022-10-11T04:15:34.358Z,33.29
2022-10-11T04:16:06.134Z,33.32
2022-10-11T04:16:37.907Z,33.51
2022-10-11T04:17:09.285Z,33.49
2022-10-11T04:17:40.730Z,33.26
2022-10-11T04:18:12.171Z,33.39
2022-10-11T04:18:43.569Z,33.47
2022-10-11T04:19:18.014Z,33.56
2022-10-11T04:19:52.245Z,33.39
2022-10-11T04:20:23.700Z,33.41
2022-10-11T04:20:55.175Z,33.26
2022-10-11T04:21:26.643Z,33.56
2022-10-11T04:22:07.161Z,33.34
2022-10-11T04:22:38.594Z,33.48
2022-10-11T04:23:11.434Z,33.37
2022-10-11T04:23:42.863Z,33.54
2022-10-11T04:24:14.273Z,33.42
2022-10-11T04:24:48.762Z,33.58
2022-10-11T04:25:20.213Z,33.39
2022-10-11T04:25:51.624Z,33.33
2022-10-11T04:26:25.955Z,33.40
2022-10-11T04:26:57.440Z,33.28
2022-10-11T04:27:28.862Z,33.48
2022-10-11T04:28:00.344Z,33.39
2022-10-11T04:28:34.073Z,33.56
2022-10-11T04:29:08.235Z,33.54
2022-10-11T04:29:39.661Z,33.31
2022-10-11T04:30:13.184Z,33.54
2022-10-11T04:30:44.594Z,33.39
2022-10-11T04:31:16.090Z,33.40
2022-10-11T04:31:47.506Z,33.47
2022-10-11T04:32:18.899Z,33.43
2022-10-11T04:32:50.324Z,33.45
2022-10-11T04:33:23.474Z,33.44
2022-10-11T04:33:54.952Z,33.50
2022-10-11T04:34:26.364Z,33.50
2022-10-11T04:34:57.756Z,33.36
2022-10-11T04:35:29.275Z,33.66
2022-10-11T04:36:00.736Z,33.40
2022-10-11T04:36:32.288Z,33.50
2022-10-11T04:37:03.678Z,33.22
2022-10-11T04:37:35.109Z,33.48
2022-10-11T04:38:06.549Z,33.57
2022-10-11T04:38:37.949Z,33.44
2022-10-11T04:39:09.484Z,33.31
2022-10-11T04:39:40.870Z,33.48
2022-10-11T04:40:12.303Z,33.33
2022-10-11T04:40:43.726Z,33.48
2022-10-11T04:41:15.138Z,33.34
2022-10-11T04:41:47.377Z,33.56
2022-10-11T04:42:18.877Z,33.59
2022-10-11T04:42:50.291Z,33.52
2022-10-11T04:43:21.777Z,33.39
2022-10-11T04:43:53.191Z,33.20
2022-10-11T04:44:24.670Z,33.57
2022-10-11T04:44:56.078Z,33.26
2022-10-11T04:45:27.506Z,33.33
2022-10-11T04:45:58.919Z,33.51
2022-10-11T04:46:30.391Z,33.53
2022-10-11T04:47:01.860Z,33.52
2022-10-11T04:47:33.314Z,33.51
2022-10-11T04:48:04.724Z,33.46
2022-10-11T04:48:36.116Z,33.54
2022-10-11T04:49:10.561Z,33.32
2022-10-11T04:49:41.967Z,33.48
2022-10-11T04:50:13.380Z,33.42
2022-10-11T04:50:47.552Z,33.37
2022-10-11T04:51:19.002Z,33.34
2022-10-11T04:51:50.393Z,33.18
2022-10-11T04:52:25.578Z,33.35
2022-10-11T04:52:57.365Z,33.15
2022-10-11T04:53:28.813Z,33.12
2022-10-11T04:54:00.899Z,33.43
2022-10-11T04:54:32.316Z,33.35
2022-10-11T04:55:03.813Z,33.22
2022-10-11T04:55:39.425Z,33.22
2022-10-11T04:56:13.915Z,33.40
2022-10-11T04:56:45.295Z,33.58
2022-10-11T04:57:16.713Z,33.39
2022-10-11T04:57:48.153Z,33.54
2022-10-11T04:58:19.564Z,33.54
2022-10-11T04:58:50.977Z,33.26
2022-10-11T04:59:24.560Z,33.34
2022-10-11T04:59:56.080Z,33.43
2022-10-11T05:00:27.505Z,33.52
2022-10-11T05:00:58.897Z,33.44
2022-10-11T05:01:30.313Z,33.52
2022-10-11T05:02:01.767Z,33.50
2022-10-11T05:02:33.264Z,33.22
2022-10-11T05:03:04.765Z,33.28
2022-10-11T05:03:36.164Z,33.23
2022-10-11T05:04:07.622Z,33.14
2022-10-11T05:04:41.211Z,33.20
2022-10-11T05:05:12.706Z,33.16
2022-10-11T05:05:44.150Z,33.25
2022-10-11T05:06:15.663Z,33.11
2022-10-11T05:06:47.075Z,33.12
2022-10-11T05:07:18.518Z,33.18
2022-10-11T05:07:49.994Z,33.15
2022-10-11T05:08:22.534Z,32.92
2022-10-11T05:08:53.986Z,33.22
2022-10-11T05:09:25.375Z,32.92
2022-10-11T05:09:56.801Z,33.15
2022-10-11T05:10:28.200Z,33.03
2022-10-11T05:10:59.781Z,33.03
2022-10-11T05:11:31.261Z,33.03
2022-10-11T05:12:05.673Z,33.16
2022-10-11T05:12:39.966Z,33.08
2022-10-11T05:13:11.422Z,33.18
2022-10-11T05:13:42.881Z,32.93
2022-10-11T05:14:14.262Z,32.98
2022-10-11T05:14:45.649Z,33.16
2022-10-11T05:15:17.144Z,33.10
2022-10-11T05:15:48.576Z,33.19
2022-10-11T05:16:21.761Z,33.00
2022-10-11T05:16:56.233Z,32.99
2022-10-11T05:17:27.674Z,32.95
2022-10-11T05:17:59.064Z,32.87
2022-10-11T05:18:30.477Z,33.13
2022-10-11T05:19:01.903Z,32.86
2022-10-11T05:19:33.326Z,32.94
2022-10-11T05:20:04.796Z,33.01
2022-10-11T05:20:36.151Z,32.95
2022-10-11T05:21:07.537Z,32.86
2022-10-11T05:21:38.994Z,33.18
2022-10-11T05:22:10.420Z,32.86
2022-10-11T05:22:41.815Z,32.83
2022-10-11T05:23:16.150Z,32.76
2022-10-11T05:23:47.691Z,32.88
2022-10-11T05:24:19.101Z,32.91
2022-10-11T05:24:50.586Z,32.81
2022-10-11T05:25:22.001Z,32.99
2022-10-11T05:25:53.461Z,32.99
2022-10-11T05:26:25.023Z,32.84
2022-10-11T05:26:59.806Z,33.09
2022-10-11T05:27:34.582Z,32.86
2022-10-11T05:28:05.947Z,33.01
2022-10-11T05:28:37.430Z,32.94
2022-10-11T05:29:09.042Z,32.97
2022-10-11T05:29:40.469Z,32.91
2022-10-11T05:30:11.954Z,33.01
2022-10-11T05:30:43.393Z,33.11
2022-10-11T05:31:14.878Z,32.88
2022-10-11T05:31:46.301Z,32.95
2022-10-11T05:32:17.755Z,32.98
2022-10-11T05:32:49.195Z,32.88
2022-10-11T05:33:23.566Z,33.01
2022-10-11T05:33:54.971Z,33.00
2022-10-11T05:34:29.345Z,33.08
2022-10-11T05:35:00.768Z,33.09
2022-10-11T05:35:32.316Z,33.25
2022-10-11T05:36:07.453Z,33.04
2022-10-11T05:36:39.315Z,33.06
2022-10-11T05:37:10.749Z,32.93
2022-10-11T05:37:42.204Z,33.00
2022-10-11T05:38:13.664Z,32.95
2022-10-11T05:38:45.093Z,33.11
2022-10-11T05:39:16.521Z,33.17
2022-10-11T05:39:47.972Z,33.14
2022-10-11T05:40:19.401Z,33.16
2022-10-11T05:40:50.834Z,33.30
2022-10-11T05:41:22.315Z,33.37
2022-10-11T05:41:53.757Z,33.23
2022-10-11T05:42:25.239Z,33.08
2022-10-11T05:42:56.649Z,33.37
2022-10-11T05:43:28.126Z,33.25
2022-10-11T05:44:02.498Z,33.12
2022-10-11T05:44:38.916Z,33.11
2022-10-11T05:45:10.340Z,33.01
2022-10-11T05:45:44.723Z,32.88
2022-10-11T05:46:16.139Z,33.02
2022-10-11T05:46:47.570Z,33.05
2022-10-11T05:47:19.029Z,33.00
2022-10-11T05:47:50.472Z,33.03
2022-10-11T05:48:21.974Z,32.91
2022-10-11T05:48:55.547Z,33.01
2022-10-11T05:49:26.997Z,33.18
2022-10-11T05:50:01.502Z,33.13
2022-10-11T05:50:32.977Z,33.20
2022-10-11T05:51:07.109Z,33.42
2022-10-11T05:51:38.578Z,33.73
2022-10-11T05:52:12.915Z,33.52
2022-10-11T05:52:44.420Z,33.43
2022-10-11T05:53:15.856Z,33.51
2022-10-11T05:53:47.267Z,33.66
2022-10-11T05:54:20.479Z,33.34
2022-10-11T05:54:51.908Z,33.40
2022-10-11T05:55:23.303Z,33.19
2022-10-11T05:55:57.871Z,33.50
2022-10-11T05:56:29.260Z,33.27
2022-10-11T05:57:00.709Z,33.32
2022-10-11T05:57:32.076Z,33.38
2022-10-11T05:58:06.379Z,33.54
2022-10-11T05:58:37.802Z,33.43
2022-10-11T05:59:09.271Z,33.53
2022-10-11T05:59:40.729Z,33.35
2022-10-11T06:00:12.163Z,33.35
2022-10-11T06:00:43.576Z,33.50
2022-10-11T06:01:15.062Z,33.55
2022-10-11T06:01:51.007Z,33.41
2022-10-11T06:02:22.582Z,33.32
2022-10-11T06:02:54.048Z,33.37
2022-10-11T06:03:25.496Z,33.55
2022-10-11T06:03:56.972Z,33.45
2022-10-11T06:04:28.352Z,33.46
2022-10-11T06:04:59.796Z,33.46
2022-10-11T06:05:31.202Z,33.32
2022-10-11T06:06:02.623Z,33.42
2022-10-11T06:06:34.034Z,33.35
2022-10-11T06:07:05.500Z,33.43
2022-10-11T06:07:39.807Z,33.45
2022-10-11T06:08:11.323Z,33.46
2022-10-11T06:08:42.756Z,33.47
2022-10-11T06:09:14.265Z,33.44
2022-10-11T06:09:45.687Z,33.47
2022-10-11T06:10:17.095Z,33.48
2022-10-11T06:10:48.503Z,33.44
2022-10-11T06:11:20.101Z,33.38
2022-10-11T06:11:54.240Z,33.61
2022-10-11T06:12:28.715Z,33.42
2022-10-11T06:13:00.129Z,33.47
2022-10-11T06:13:31.657Z,33.52
2022-10-11T06:14:06.118Z,33.60
2022-10-11T06:14:39.360Z,33.39
2022-10-11T06:15:10.798Z,33.38
2022-10-11T06:15:42.205Z,33.31
2022-10-11T06:16:13.595Z,33.31
2022-10-11T06:16:45.232Z,33.46
2022-10-11T06:17:19.440Z,33.47
2022-10-11T06:17:50.834Z,33.35
2022-10-11T06:18:22.322Z,33.39
2022-10-11T06:18:55.919Z,33.33
2022-10-11T06:19:27.342Z,33.40
2022-10-11T06:20:01.577Z,33.54
2022-10-11T06:20:33.010Z,33.39
2022-10-11T06:21:06.184Z,33.30
2022-10-11T06:21:37.623Z,33.41
2022-10-11T06:22:09.033Z,33.42
2022-10-11T06:22:40.542Z,33.35
2022-10-11T06:23:11.964Z,33.29
2022-10-11T06:23:43.437Z,33.33
2022-10-11T06:24:14.869Z,33.19
2022-10-11T06:24:46.263Z,33.29
2022-10-11T06:25:17.725Z,33.41
2022-10-11T06:25:49.154Z,33.41
2022-10-11T06:26:20.615Z,33.30
2022-10-11T06:26:52.068Z,33.27
2022-10-11T06:27:23.463Z,33.22
2022-10-11T06:27:54.902Z,33.31
2022-10-11T06:28:26.471Z,33.48
2022-10-11T06:28:58.037Z,33.32
2022-10-11T06:29:30.706Z,33.50
2022-10-11T06:30:02.124Z,33.29
2022-10-11T06:30:33.647Z,33.16
2022-10-11T06:31:07.921Z,33.18
2022-10-11T06:31:41.246Z,33.15
2022-10-11T06:32:12.692Z,33.15
2022-10-11T06:32:45.973Z,33.21
2022-10-11T06:33:17.358Z,33.13
2022-10-11T06:33:48.743Z,33.17
2022-10-11T06:34:25.158Z,33.40
2022-10-11T06:34:56.547Z,33.01
2022-10-11T06:35:28.005Z,33.10
2022-10-11T06:35:59.451Z,33.26
2022-10-11T06:36:31.033Z,33.46
2022-10-11T06:37:02.564Z,33.28
2022-10-11T06:37:34.012Z,33.28
2022-10-11T06:38:05.478Z,33.15
2022-10-11T06:38:41.013Z,33.10
2022-10-11T06:39:15.326Z,33.21
2022-10-11T06:39:46.747Z,33.28
2022-10-11T06:40:18.205Z,33.20
2022-10-11T06:40:49.686Z,33.10
2022-10-11T06:41:23.761Z,33.16
2022-10-11T06:41:55.261Z,33.20
2022-10-11T06:42:26.640Z,33.18
2022-10-11T06:42:58.027Z,33.35
2022-10-11T06:43:29.454Z,33.19
2022-10-11T06:44:00.917Z,33.12
2022-10-11T06:44:33.549Z,33.05
2022-10-11T06:45:04.964Z,33.19
2022-10-11T06:45:36.411Z,33.34
2022-10-11T06:46:08.094Z,33.21
2022-10-11T06:46:39.879Z,33.12
2022-10-11T06:47:11.267Z,33.28
2022-10-11T06:47:42.740Z,33.32
2022-10-11T06:48:14.155Z,33.28
2022-10-11T06:48:45.606Z,33.17
2022-10-11T06:49:22.223Z,33.28
2022-10-11T06:49:54.705Z,33.09
2022-10-11T06:50:47.542Z,33.12
2022-10-11T06:51:20.337Z,33.29
2022-10-11T06:51:51.897Z,33.08
2022-10-11T06:52:23.332Z,33.24